sensor_id;sensor_type;location;lat;lon;timestamp;P1;P2;P0
72509;PMS5003;60532;56.114;40.350;2022-11-15T00:00:44;6.33;5.00;1.67
72509;PMS5003;60532;56.114;40.350;2022-11-15T00:02:44;4.00;4.00;2.00
72509;PMS5003;60532;56.114;40.350;2022-11-15T00:04:45;5.67;4.00;2.00
72509;PMS5003;60532;56.114;40.350;2022-11-15T00:06:45;10.00;7.00;2.00
72509;PMS5003;60532;56.114;40.350;2022-11-15T00:08:46;7.33;7.00;3.33
72509;PMS5003;60532;56.114;40.350;2022-11-15T00:10:56;7.00;5.00;2.00
72509;PMS5003;60532;56.114;40.350;2022-11-15T00:12:56;4.00;4.00;2.00
72509;PMS5003;60532;56.114;40.350;2022-11-15T00:14:57;7.00;5.00;2.67
72509;PMS5003;60532;56.114;40.350;2022-11-15T00:16:57;7.00;5.00;2.00
72509;PMS5003;60532;56.114;40.350;2022-11-15T00:18:58;8.67;7.67;2.67
72509;PMS5003;60532;56.114;40.350;2022-11-15T00:21:05;8.67;7.00;2.00
72509;PMS5003;60532;56.114;40.350;2022-11-15T00:23:06;5.50;4.50;1.75
72509;PMS5003;60532;56.114;40.350;2022-11-15T00:25:07;7.00;5.00;2.00
72509;PMS5003;60532;56.114;40.350;2022-11-15T00:27:07;8.33;7.00;2.00
72509;PMS5003;60532;56.114;40.350;2022-11-15T00:29:08;10.00;6.33;2.00
72509;PMS5003;60532;56.114;40.350;2022-11-15T00:31:09;9.33;7.00;2.00
72509;PMS5003;60532;56.114;40.350;2022-11-15T00:33:09;7.75;5.00;2.00
72509;PMS5003;60532;56.114;40.350;2022-11-15T00:35:10;7.00;4.00;2.00
72509;PMS5003;60532;56.114;40.350;2022-11-15T00:37:10;4.00;4.00;2.00
72509;PMS5003;60532;56.114;40.350;2022-11-15T00:39:11;5.67;4.33;1.33
72509;PMS5003;60532;56.114;40.350;2022-11-15T00:41:11;7.33;2.67;1.00
72509;PMS5003;60532;56.114;40.350;2022-11-15T00:43:12;6.33;4.00;1.00
72509;PMS5003;60532;56.114;40.350;2022-11-15T00:45:12;8.00;4.67;2.00
72509;PMS5003;60532;56.114;40.350;2022-11-15T00:47:13;7.33;5.00;2.00
72509;PMS5003;60532;56.114;40.350;2022-11-15T00:49:13;10.00;6.67;1.00
72509;PMS5003;60532;56.114;40.350;2022-11-15T00:51:14;4.00;4.00;0.67
72509;PMS5003;60532;56.114;40.350;2022-11-15T00:53:14;7.67;4.00;1.00
72509;PMS5003;60532;56.114;40.350;2022-11-15T00:55:15;2.00;1.33;0.33
72509;PMS5003;60532;56.114;40.350;2022-11-15T00:57:16;2.00;2.00;0.25
72509;PMS5003;60532;56.114;40.350;2022-11-15T00:59:16;2.00;2.00;1.00
72509;PMS5003;60532;56.114;40.350;2022-11-15T01:01:17;4.67;2.00;1.00
72509;PMS5003;60532;56.114;40.350;2022-11-15T01:03:17;5.67;4.00;1.67
72509;PMS5003;60532;56.114;40.350;2022-11-15T01:05:18;4.67;4.33;1.00
72509;PMS5003;60532;56.114;40.350;2022-11-15T01:07:18;3.33;3.33;1.00
72509;PMS5003;60532;56.114;40.350;2022-11-15T01:09:19;4.67;4.00;1.00
72509;PMS5003;60532;56.114;40.350;2022-11-15T01:11:19;4.67;2.00;0.33
72509;PMS5003;60532;56.114;40.350;2022-11-15T01:13:20;8.00;2.00;0.67
72509;PMS5003;60532;56.114;40.350;2022-11-15T01:15:20;2.67;2.67;1.00
72509;PMS5003;60532;56.114;40.350;2022-11-15T01:17:21;4.67;4.67;0.33
72509;PMS5003;60532;56.114;40.350;2022-11-15T01:19:21;4.33;1.00;1.00
72509;PMS5003;60532;56.114;40.350;2022-11-15T01:21:22;2.00;2.00;0.00
72509;PMS5003;60532;56.114;40.350;2022-11-15T01:23:23;4.00;4.00;1.00
72509;PMS5003;60532;56.114;40.350;2022-11-15T01:25:23;0.33;0.00;0.00
72509;PMS5003;60532;56.114;40.350;2022-11-15T01:27:24;4.00;2.00;1.00
72509;PMS5003;60532;56.114;40.350;2022-11-15T01:29:24;2.33;1.00;0.00
72509;PMS5003;60532;56.114;40.350;2022-11-15T01:31:24;4.00;2.00;0.00
72509;PMS5003;60532;56.114;40.350;2022-11-15T01:33:25;2.00;1.00;0.33
72509;PMS5003;60532;56.114;40.350;2022-11-15T01:35:25;1.00;1.00;0.00
72509;PMS5003;60532;56.114;40.350;2022-11-15T01:37:26;3.00;2.00;1.00
72509;PMS5003;60532;56.114;40.350;2022-11-15T01:39:27;4.00;4.00;1.00
72509;PMS5003;60532;56.114;40.350;2022-11-15T01:41:28;2.67;1.67;0.00
72509;PMS5003;60532;56.114;40.350;2022-11-15T01:43:31;2.50;2.50;1.00
72509;PMS5003;60532;56.114;40.350;2022-11-15T01:45:32;3.75;2.00;0.00
72509;PMS5003;60532;56.114;40.350;2022-11-15T01:47:33;1.00;1.00;0.00
72509;PMS5003;60532;56.114;40.350;2022-11-15T01:49:35;3.00;2.00;1.00
72509;PMS5003;60532;56.114;40.350;2022-11-15T01:51:38;1.25;1.00;0.00
72509;PMS5003;60532;56.114;40.350;2022-11-15T01:53:39;1.67;1.33;0.00
72509;PMS5003;60532;56.114;40.350;2022-11-15T01:55:41;6.00;2.00;0.75
72509;PMS5003;60532;56.114;40.350;2022-11-15T01:57:41;2.00;2.00;0.00
72509;PMS5003;60532;56.114;40.350;2022-11-15T01:59:43;3.00;3.00;0.50
72509;PMS5003;60532;56.114;40.350;2022-11-15T02:01:45;2.00;2.00;0.25
72509;PMS5003;60532;56.114;40.350;2022-11-15T02:03:47;1.00;1.00;0.67
72509;PMS5003;60532;56.114;40.350;2022-11-15T02:05:49;2.50;1.00;0.00
72509;PMS5003;60532;56.114;40.350;2022-11-15T02:07:50;0.00;0.00;0.00
72509;PMS5003;60532;56.114;40.350;2022-11-15T02:09:51;1.00;1.00;0.00
72509;PMS5003;60532;56.114;40.350;2022-11-15T02:11:52;3.33;1.67;0.00
72509;PMS5003;60532;56.114;40.350;2022-11-15T02:13:54;4.00;1.50;0.50
72509;PMS5003;60532;56.114;40.350;2022-11-15T02:15:58;1.75;0.25;0.00
72509;PMS5003;60532;56.114;40.350;2022-11-15T02:20:36;1.50;1.50;0.00
72509;PMS5003;60532;56.114;40.350;2022-11-15T02:31:23;5.75;1.00;1.00
72509;PMS5003;60532;56.114;40.350;2022-11-15T02:35:43;3.25;2.00;1.00
72509;PMS5003;60532;56.114;40.350;2022-11-15T02:37:53;1.25;1.25;0.00
72509;PMS5003;60532;56.114;40.350;2022-11-15T02:42:17;3.33;1.00;0.00
72509;PMS5003;60532;56.114;40.350;2022-11-15T02:44:39;1.00;1.00;0.00
72509;PMS5003;60532;56.114;40.350;2022-11-15T02:46:50;6.00;2.00;1.00
72509;PMS5003;60532;56.114;40.350;2022-11-15T02:49:12;3.50;1.50;0.00
72509;PMS5003;60532;56.114;40.350;2022-11-15T02:51:14;3.25;2.50;1.00
72509;PMS5003;60532;56.114;40.350;2022-11-15T02:53:16;1.25;1.25;0.50
72509;PMS5003;60532;56.114;40.350;2022-11-15T02:55:29;3.33;2.00;0.00
72509;PMS5003;60532;56.114;40.350;2022-11-15T02:57:39;4.50;2.00;0.00
72509;PMS5003;60532;56.114;40.350;2022-11-15T03:02:06;0.00;0.00;0.00
72509;PMS5003;60532;56.114;40.350;2022-11-15T03:04:27;3.00;1.00;0.75
72509;PMS5003;60532;56.114;40.350;2022-11-15T03:14:44;4.00;2.00;0.00
72509;PMS5003;60532;56.114;40.350;2022-11-15T03:19:50;3.00;1.75;1.00
72509;PMS5003;60532;56.114;40.350;2022-11-15T03:21:31;4.75;1.25;0.25
72509;PMS5003;60532;56.114;40.350;2022-11-15T03:23:33;3.50;2.00;1.00
72509;PMS5003;60532;56.114;40.350;2022-11-15T03:25:37;2.00;1.50;0.00
72509;PMS5003;60532;56.114;40.350;2022-11-15T03:27:39;5.00;2.50;1.00
72509;PMS5003;60532;56.114;40.350;2022-11-15T03:29:43;2.00;2.00;1.00
72509;PMS5003;60532;56.114;40.350;2022-11-15T03:31:46;2.50;2.50;0.25
72509;PMS5003;60532;56.114;40.350;2022-11-15T03:33:50;3.50;2.00;0.50
72509;PMS5003;60532;56.114;40.350;2022-11-15T03:35:51;1.75;1.75;1.00
72509;PMS5003;60532;56.114;40.350;2022-11-15T03:39:59;5.75;1.75;0.25
72509;PMS5003;60532;56.114;40.350;2022-11-15T03:46:17;1.00;1.00;0.75
72509;PMS5003;60532;56.114;40.350;2022-11-15T03:48:24;2.00;2.00;0.75
72509;PMS5003;60532;56.114;40.350;2022-11-15T03:50:26;2.00;2.00;1.00
72509;PMS5003;60532;56.114;40.350;2022-11-15T03:52:30;1.00;1.00;0.00
72509;PMS5003;60532;56.114;40.350;2022-11-15T03:54:31;1.00;1.00;0.00
72509;PMS5003;60532;56.114;40.350;2022-11-15T03:56:32;0.00;0.00;0.00
72509;PMS5003;60532;56.114;40.350;2022-11-15T03:58:32;5.00;1.00;1.00
72509;PMS5003;60532;56.114;40.350;2022-11-15T04:00:33;4.33;1.33;1.00
72509;PMS5003;60532;56.114;40.350;2022-11-15T04:02:33;1.67;1.67;0.00
72509;PMS5003;60532;56.114;40.350;2022-11-15T04:04:34;5.00;1.33;0.00
72509;PMS5003;60532;56.114;40.350;2022-11-15T04:06:34;2.67;1.00;0.00
72509;PMS5003;60532;56.114;40.350;2022-11-15T04:08:35;7.00;1.33;0.67
72509;PMS5003;60532;56.114;40.350;2022-11-15T04:10:36;1.33;1.33;0.33
72509;PMS5003;60532;56.114;40.350;2022-11-15T04:12:37;9.00;4.00;1.00
72509;PMS5003;60532;56.114;40.350;2022-11-15T04:14:39;5.00;2.50;1.00
72509;PMS5003;60532;56.114;40.350;2022-11-15T04:16:59;3.50;1.50;1.00
72509;PMS5003;60532;56.114;40.350;2022-11-15T04:19:00;4.00;1.67;0.00
72509;PMS5003;60532;56.114;40.350;2022-11-15T04:21:19;5.00;3.00;1.00
72509;PMS5003;60532;56.114;40.350;2022-11-15T04:23:38;0.75;0.75;0.00
72509;PMS5003;60532;56.114;40.350;2022-11-15T04:26:01;3.50;2.00;1.00
72509;PMS5003;60532;56.114;40.350;2022-11-15T04:28:21;2.00;2.00;0.75
72509;PMS5003;60532;56.114;40.350;2022-11-15T04:30:40;5.00;4.00;1.50
72509;PMS5003;60532;56.114;40.350;2022-11-15T04:32:59;4.25;1.00;0.00
72509;PMS5003;60532;56.114;40.350;2022-11-15T04:35:18;7.25;2.00;1.00
72509;PMS5003;60532;56.114;40.350;2022-11-15T04:37:38;4.50;1.00;1.00
72509;PMS5003;60532;56.114;40.350;2022-11-15T04:39:57;5.50;3.75;1.00
72509;PMS5003;60532;56.114;40.350;2022-11-15T04:42:16;4.75;2.00;0.50
72509;PMS5003;60532;56.114;40.350;2022-11-15T04:44:35;5.50;2.50;0.75
72509;PMS5003;60532;56.114;40.350;2022-11-15T04:46:36;5.67;4.00;1.00
72509;PMS5003;60532;56.114;40.350;2022-11-15T04:48:36;7.33;2.67;1.00
72509;PMS5003;60532;56.114;40.350;2022-11-15T04:50:37;5.00;5.00;2.00
72509;PMS5003;60532;56.114;40.350;2022-11-15T04:52:37;5.67;5.67;1.00
72509;PMS5003;60532;56.114;40.350;2022-11-15T04:54:38;5.67;5.67;1.67
72509;PMS5003;60532;56.114;40.350;2022-11-15T04:56:38;8.00;6.33;4.00
72509;PMS5003;60532;56.114;40.350;2022-11-15T04:58:39;8.67;8.67;4.00
72509;PMS5003;60532;56.114;40.350;2022-11-15T05:00:39;6.67;6.67;4.00
72509;PMS5003;60532;56.114;40.350;2022-11-15T05:02:40;8.00;8.00;2.00
72509;PMS5003;60532;56.114;40.350;2022-11-15T05:04:59;13.00;8.00;2.80
72509;PMS5003;60532;56.114;40.350;2022-11-15T05:06:59;8.00;5.00;2.00
72509;PMS5003;60532;56.114;40.350;2022-11-15T05:09:00;8.00;7.33;2.67
72509;PMS5003;60532;56.114;40.350;2022-11-15T05:11:01;11.00;7.00;2.00
72509;PMS5003;60532;56.114;40.350;2022-11-15T05:13:01;7.00;5.00;1.00
72509;PMS5003;60532;56.114;40.350;2022-11-15T05:15:02;10.00;7.67;3.33
72509;PMS5003;60532;56.114;40.350;2022-11-15T05:17:02;7.00;6.00;1.00
72509;PMS5003;60532;56.114;40.350;2022-11-15T05:19:03;5.67;4.00;2.00
72509;PMS5003;60532;56.114;40.350;2022-11-15T05:21:05;5.50;5.50;2.00
72509;PMS5003;60532;56.114;40.350;2022-11-15T05:23:06;4.25;4.00;1.00
72509;PMS5003;60532;56.114;40.350;2022-11-15T05:25:06;7.00;4.67;1.00
72509;PMS5003;60532;56.114;40.350;2022-11-15T05:27:07;7.67;4.33;1.67
72509;PMS5003;60532;56.114;40.350;2022-11-15T05:29:08;7.67;4.67;1.33
72509;PMS5003;60532;56.114;40.350;2022-11-15T05:31:13;7.75;6.50;2.00
72509;PMS5003;60532;56.114;40.350;2022-11-15T05:33:14;3.50;2.50;1.00
72509;PMS5003;60532;56.114;40.350;2022-11-15T05:35:19;13.67;11.00;4.00
72509;PMS5003;60532;56.114;40.350;2022-11-15T05:37:20;6.00;4.00;0.00
72509;PMS5003;60532;56.114;40.350;2022-11-15T05:39:21;9.33;8.33;5.00
72509;PMS5003;60532;56.114;40.350;2022-11-15T05:41:24;6.67;5.67;2.67
72509;PMS5003;60532;56.114;40.350;2022-11-15T05:43:26;12.00;7.00;2.00
72509;PMS5003;60532;56.114;40.350;2022-11-15T05:45:27;8.00;7.67;4.00
72509;PMS5003;60532;56.114;40.350;2022-11-15T05:47:28;13.00;8.00;4.00
72509;PMS5003;60532;56.114;40.350;2022-11-15T05:49:30;7.00;7.00;2.00
72509;PMS5003;60532;56.114;40.350;2022-11-15T05:51:31;12.75;9.50;3.00
72509;PMS5003;60532;56.114;40.350;2022-11-15T05:53:31;7.67;7.00;2.00
72509;PMS5003;60532;56.114;40.350;2022-11-15T05:55:33;7.00;7.00;3.00
72509;PMS5003;60532;56.114;40.350;2022-11-15T05:57:34;7.75;7.75;2.50
72509;PMS5003;60532;56.114;40.350;2022-11-15T05:59:34;7.67;5.00;2.00
72509;PMS5003;60532;56.114;40.350;2022-11-15T06:01:35;8.25;5.00;2.00
72509;PMS5003;60532;56.114;40.350;2022-11-15T06:03:36;7.00;4.67;2.00
72509;PMS5003;60532;56.114;40.350;2022-11-15T06:05:37;8.33;5.00;4.00
72509;PMS5003;60532;56.114;40.350;2022-11-15T06:07:37;12.00;8.00;2.00
72509;PMS5003;60532;56.114;40.350;2022-11-15T06:09:38;8.33;4.33;0.67
72509;PMS5003;60532;56.114;40.350;2022-11-15T06:11:38;8.00;8.00;2.00
72509;PMS5003;60532;56.114;40.350;2022-11-15T06:13:39;7.67;4.00;1.33
72509;PMS5003;60532;56.114;40.350;2022-11-15T06:15:39;8.33;7.00;3.33
72509;PMS5003;60532;56.114;40.350;2022-11-15T06:17:40;7.00;5.67;1.00
72509;PMS5003;60532;56.114;40.350;2022-11-15T06:19:40;11.67;7.33;4.00
72509;PMS5003;60532;56.114;40.350;2022-11-15T06:21:41;7.33;6.67;2.00
72509;PMS5003;60532;56.114;40.350;2022-11-15T06:23:41;8.33;5.00;2.67
72509;PMS5003;60532;56.114;40.350;2022-11-15T06:25:42;8.00;5.33;2.00
72509;PMS5003;60532;56.114;40.350;2022-11-15T06:27:42;7.00;5.00;2.00
72509;PMS5003;60532;56.114;40.350;2022-11-15T06:29:43;9.00;6.00;2.00
72509;PMS5003;60532;56.114;40.350;2022-11-15T06:31:43;8.00;5.67;2.67
72509;PMS5003;60532;56.114;40.350;2022-11-15T06:33:44;2.00;2.00;1.00
72509;PMS5003;60532;56.114;40.350;2022-11-15T06:35:44;6.00;6.00;2.00
72509;PMS5003;60532;56.114;40.350;2022-11-15T06:37:45;6.00;3.67;1.00
72509;PMS5003;60532;56.114;40.350;2022-11-15T06:39:45;4.67;2.00;1.00
72509;PMS5003;60532;56.114;40.350;2022-11-15T06:41:46;9.00;3.00;1.67
72509;PMS5003;60532;56.114;40.350;2022-11-15T06:43:46;3.00;3.00;1.00
72509;PMS5003;60532;56.114;40.350;2022-11-15T06:45:47;6.33;5.33;2.00
72509;PMS5003;60532;56.114;40.350;2022-11-15T06:47:48;7.67;5.67;2.00
72509;PMS5003;60532;56.114;40.350;2022-11-15T06:49:53;5.25;5.25;1.75
72509;PMS5003;60532;56.114;40.350;2022-11-15T06:51:53;7.33;5.00;2.00
72509;PMS5003;60532;56.114;40.350;2022-11-15T06:53:54;3.00;3.00;1.00
72509;PMS5003;60532;56.114;40.350;2022-11-15T06:55:57;3.00;3.00;1.00
72509;PMS5003;60532;56.114;40.350;2022-11-15T06:57:58;6.25;5.00;1.00
72509;PMS5003;60532;56.114;40.350;2022-11-15T06:59:59;7.00;5.00;1.00
72509;PMS5003;60532;56.114;40.350;2022-11-15T07:01:59;7.00;6.00;1.33
72509;PMS5003;60532;56.114;40.350;2022-11-15T07:04:01;4.00;3.00;1.75
72509;PMS5003;60532;56.114;40.350;2022-11-15T07:06:01;5.67;3.33;1.67
72509;PMS5003;60532;56.114;40.350;2022-11-15T07:08:05;5.00;2.00;1.00
72509;PMS5003;60532;56.114;40.350;2022-11-15T07:10:07;2.00;1.00;0.00
72509;PMS5003;60532;56.114;40.350;2022-11-15T07:12:08;6.00;5.00;1.00
72509;PMS5003;60532;56.114;40.350;2022-11-15T07:14:08;2.00;2.00;1.00
72509;PMS5003;60532;56.114;40.350;2022-11-15T07:16:09;3.33;3.33;2.00
72509;PMS5003;60532;56.114;40.350;2022-11-15T07:18:10;6.25;3.25;1.00
72509;PMS5003;60532;56.114;40.350;2022-11-15T07:20:11;3.00;3.00;1.00
72509;PMS5003;60532;56.114;40.350;2022-11-15T07:22:13;3.00;2.00;1.00
72509;PMS5003;60532;56.114;40.350;2022-11-15T07:24:13;3.67;2.00;1.00
72509;PMS5003;60532;56.114;40.350;2022-11-15T07:26:14;6.67;5.00;2.00
72509;PMS5003;60532;56.114;40.350;2022-11-15T07:28:14;7.67;5.67;1.00
72509;PMS5003;60532;56.114;40.350;2022-11-15T07:30:15;5.00;2.33;1.00
72509;PMS5003;60532;56.114;40.350;2022-11-15T07:32:15;3.33;3.33;2.00
72509;PMS5003;60532;56.114;40.350;2022-11-15T07:34:16;5.00;3.33;2.00
72509;PMS5003;60532;56.114;40.350;2022-11-15T07:36:17;9.33;3.33;1.00
72509;PMS5003;60532;56.114;40.350;2022-11-15T07:38:17;4.00;4.00;2.00
72509;PMS5003;60532;56.114;40.350;2022-11-15T07:40:21;7.00;4.25;1.25
72509;PMS5003;60532;56.114;40.350;2022-11-15T07:42:21;6.33;5.00;2.00
72509;PMS5003;60532;56.114;40.350;2022-11-15T07:44:40;8.00;4.50;2.00
72509;PMS5003;60532;56.114;40.350;2022-11-15T07:46:43;8.50;5.50;2.00
72509;PMS5003;60532;56.114;40.350;2022-11-15T07:48:44;2.00;2.00;1.00
72509;PMS5003;60532;56.114;40.350;2022-11-15T07:50:44;4.00;3.33;1.67
72509;PMS5003;60532;56.114;40.350;2022-11-15T07:52:45;4.00;3.33;1.00
72509;PMS5003;60532;56.114;40.350;2022-11-15T07:54:45;8.00;4.00;0.00
72509;PMS5003;60532;56.114;40.350;2022-11-15T07:56:46;4.00;4.00;1.00
72509;PMS5003;60532;56.114;40.350;2022-11-15T07:58:49;5.00;5.00;2.00
72509;PMS5003;60532;56.114;40.350;2022-11-15T08:00:50;7.00;4.50;2.00
72509;PMS5003;60532;56.114;40.350;2022-11-15T08:02:50;6.67;4.00;2.00
72509;PMS5003;60532;56.114;40.350;2022-11-15T08:04:51;6.33;2.67;1.00
72509;PMS5003;60532;56.114;40.350;2022-11-15T08:06:51;8.67;5.33;2.00
72509;PMS5003;60532;56.114;40.350;2022-11-15T08:08:52;4.00;4.00;0.33
72509;PMS5003;60532;56.114;40.350;2022-11-15T08:10:53;5.33;5.00;2.00
72509;PMS5003;60532;56.114;40.350;2022-11-15T08:13:00;5.50;5.00;1.00
72509;PMS5003;60532;56.114;40.350;2022-11-15T08:15:01;7.00;3.50;2.00
72509;PMS5003;60532;56.114;40.350;2022-11-15T08:17:02;4.00;2.00;1.00
72509;PMS5003;60532;56.114;40.350;2022-11-15T08:19:02;7.33;5.33;1.00
72509;PMS5003;60532;56.114;40.350;2022-11-15T08:21:03;2.67;2.67;1.00
72509;PMS5003;60532;56.114;40.350;2022-11-15T08:23:04;5.75;4.00;2.00
72509;PMS5003;60532;56.114;40.350;2022-11-15T08:25:05;4.67;4.33;1.00
72509;PMS5003;60532;56.114;40.350;2022-11-15T08:27:05;4.67;4.00;2.00
72509;PMS5003;60532;56.114;40.350;2022-11-15T08:29:14;8.00;5.00;2.50
72509;PMS5003;60532;56.114;40.350;2022-11-15T08:31:15;6.67;5.67;1.33
72509;PMS5003;60532;56.114;40.350;2022-11-15T08:33:17;5.00;2.50;1.00
72509;PMS5003;60532;56.114;40.350;2022-11-15T08:35:18;4.67;4.00;2.00
72509;PMS5003;60532;56.114;40.350;2022-11-15T08:37:19;5.00;5.00;1.50
72509;PMS5003;60532;56.114;40.350;2022-11-15T08:39:19;10.67;5.33;1.67
72509;PMS5003;60532;56.114;40.350;2022-11-15T08:41:23;4.00;4.00;1.33
72509;PMS5003;60532;56.114;40.350;2022-11-15T08:43:25;2.50;2.50;1.00
72509;PMS5003;60532;56.114;40.350;2022-11-15T08:45:25;4.33;2.67;0.67
72509;PMS5003;60532;56.114;40.350;2022-11-15T08:47:25;2.67;2.00;1.33
72509;PMS5003;60532;56.114;40.350;2022-11-15T08:49:26;1.67;1.67;1.00
72509;PMS5003;60532;56.114;40.350;2022-11-15T08:51:27;2.00;2.00;1.00
72509;PMS5003;60532;56.114;40.350;2022-11-15T08:53:27;8.00;4.00;1.00
72509;PMS5003;60532;56.114;40.350;2022-11-15T08:55:28;4.00;4.00;1.00
72509;PMS5003;60532;56.114;40.350;2022-11-15T08:57:28;2.67;2.00;1.00
72509;PMS5003;60532;56.114;40.350;2022-11-15T08:59:30;2.00;2.00;1.00
72509;PMS5003;60532;56.114;40.350;2022-11-15T09:01:30;5.67;5.67;2.00
72509;PMS5003;60532;56.114;40.350;2022-11-15T09:03:32;3.25;3.00;1.00
72509;PMS5003;60532;56.114;40.350;2022-11-15T09:05:35;5.00;2.00;0.00
72509;PMS5003;60532;56.114;40.350;2022-11-15T09:07:35;5.25;3.00;0.75
72509;PMS5003;60532;56.114;40.350;2022-11-15T09:09:36;4.00;4.00;1.00
72509;PMS5003;60532;56.114;40.350;2022-11-15T09:11:37;2.00;1.00;0.50
72509;PMS5003;60532;56.114;40.350;2022-11-15T09:13:38;4.33;4.00;2.00
72509;PMS5003;60532;56.114;40.350;2022-11-15T09:15:38;4.67;3.33;1.00
72509;PMS5003;60532;56.114;40.350;2022-11-15T09:17:39;2.33;2.33;1.00
72509;PMS5003;60532;56.114;40.350;2022-11-15T09:19:39;7.33;4.00;1.00
72509;PMS5003;60532;56.114;40.350;2022-11-15T09:21:40;5.33;5.00;2.00
72509;PMS5003;60532;56.114;40.350;2022-11-15T09:23:40;2.33;1.00;0.00
72509;PMS5003;60532;56.114;40.350;2022-11-15T09:25:41;4.67;4.00;1.00
72509;PMS5003;60532;56.114;40.350;2022-11-15T09:27:42;8.75;4.00;1.00
72509;PMS5003;60532;56.114;40.350;2022-11-15T09:29:43;4.33;3.33;1.00
72509;PMS5003;60532;56.114;40.350;2022-11-15T09:31:43;9.33;4.00;1.00
72509;PMS5003;60532;56.114;40.350;2022-11-15T09:33:44;2.00;2.00;0.00
72509;PMS5003;60532;56.114;40.350;2022-11-15T09:35:45;4.00;1.00;0.00
72509;PMS5003;60532;56.114;40.350;2022-11-15T09:37:45;6.00;2.00;0.33
72509;PMS5003;60532;56.114;40.350;2022-11-15T09:39:46;1.00;1.00;0.00
72509;PMS5003;60532;56.114;40.350;2022-11-15T09:44:11;6.00;4.67;1.00
72509;PMS5003;60532;56.114;40.350;2022-11-15T09:46:20;4.00;4.00;1.00
72509;PMS5003;60532;56.114;40.350;2022-11-15T09:50:43;4.33;2.00;1.00
72509;PMS5003;60532;56.114;40.350;2022-11-15T09:52:47;6.00;3.00;1.00
72509;PMS5003;60532;56.114;40.350;2022-11-15T09:54:48;2.00;1.00;0.00
72509;PMS5003;60532;56.114;40.350;2022-11-15T09:56:49;4.00;2.00;0.75
72509;PMS5003;60532;56.114;40.350;2022-11-15T09:59:00;1.00;1.00;0.00
72509;PMS5003;60532;56.114;40.350;2022-11-15T10:01:03;4.00;1.25;0.50
72509;PMS5003;60532;56.114;40.350;2022-11-15T10:05:14;3.50;1.00;0.25
72509;PMS5003;60532;56.114;40.350;2022-11-15T10:07:19;1.25;1.00;0.75
72509;PMS5003;60532;56.114;40.350;2022-11-15T10:09:25;4.50;4.50;1.00
72509;PMS5003;60532;56.114;40.350;2022-11-15T10:11:28;1.75;1.75;0.00
72509;PMS5003;60532;56.114;40.350;2022-11-15T10:13:30;4.50;2.50;1.00
72509;PMS5003;60532;56.114;40.350;2022-11-15T10:15:32;4.50;0.00;0.00
72509;PMS5003;60532;56.114;40.350;2022-11-15T10:22:19;3.67;1.33;0.33
72509;PMS5003;60532;56.114;40.350;2022-11-15T10:24:25;1.00;1.00;0.00
72509;PMS5003;60532;56.114;40.350;2022-11-15T10:26:28;4.25;4.00;1.00
72509;PMS5003;60532;56.114;40.350;2022-11-15T10:28:29;2.00;2.00;1.00
72509;PMS5003;60532;56.114;40.350;2022-11-15T10:30:32;4.75;2.00;0.25
72509;PMS5003;60532;56.114;40.350;2022-11-15T10:32:33;2.50;2.00;0.25
72509;PMS5003;60532;56.114;40.350;2022-11-15T10:34:36;6.25;3.00;1.00
72509;PMS5003;60532;56.114;40.350;2022-11-15T10:36:36;3.33;2.00;1.00
72509;PMS5003;60532;56.114;40.350;2022-11-15T10:40:51;1.75;1.00;1.00
72509;PMS5003;60532;56.114;40.350;2022-11-15T10:45:22;3.33;3.33;1.00
72509;PMS5003;60532;56.114;40.350;2022-11-15T10:49:25;5.00;4.00;1.33
72509;PMS5003;60532;56.114;40.350;2022-11-15T10:51:26;4.00;2.00;1.00
72509;PMS5003;60532;56.114;40.350;2022-11-15T10:53:33;6.00;4.00;2.00
72509;PMS5003;60532;56.114;40.350;2022-11-15T10:55:37;4.00;4.00;1.00
72509;PMS5003;60532;56.114;40.350;2022-11-15T10:57:40;6.00;3.50;1.00
72509;PMS5003;60532;56.114;40.350;2022-11-15T10:59:49;5.00;4.00;1.00
72509;PMS5003;60532;56.114;40.350;2022-11-15T11:01:51;4.25;4.25;1.00
72509;PMS5003;60532;56.114;40.350;2022-11-15T11:04:02;1.33;0.67;0.00
72509;PMS5003;60532;56.114;40.350;2022-11-15T11:06:07;4.00;4.00;2.00
72509;PMS5003;60532;56.114;40.350;2022-11-15T11:10:18;5.50;4.00;2.00
72509;PMS5003;60532;56.114;40.350;2022-11-15T11:12:19;3.75;2.00;0.00
72509;PMS5003;60532;56.114;40.350;2022-11-15T11:14:31;3.75;3.75;1.00
72509;PMS5003;60532;56.114;40.350;2022-11-15T11:16:36;5.25;3.50;1.00
72509;PMS5003;60532;56.114;40.350;2022-11-15T11:20:48;4.75;4.00;1.00
72509;PMS5003;60532;56.114;40.350;2022-11-15T11:27:22;2.00;2.00;1.00
72509;PMS5003;60532;56.114;40.350;2022-11-15T11:31:54;5.00;2.00;1.00
72509;PMS5003;60532;56.114;40.350;2022-11-15T11:46:48;1.25;1.00;0.50
72509;PMS5003;60532;56.114;40.350;2022-11-15T11:50:51;1.50;1.50;1.00
72509;PMS5003;60532;56.114;40.350;2022-11-15T11:53:03;3.50;1.75;0.75
72509;PMS5003;60532;56.114;40.350;2022-11-15T11:57:15;4.00;4.00;1.00
72509;PMS5003;60532;56.114;40.350;2022-11-15T11:59:31;4.75;3.50;1.00
72509;PMS5003;60532;56.114;40.350;2022-11-15T12:01:41;4.50;4.50;1.75
72509;PMS5003;60532;56.114;40.350;2022-11-15T12:05:46;2.00;2.00;1.00
72509;PMS5003;60532;56.114;40.350;2022-11-15T12:07:49;6.00;4.00;1.00
72509;PMS5003;60532;56.114;40.350;2022-11-15T12:09:53;5.50;5.00;2.00
72509;PMS5003;60532;56.114;40.350;2022-11-15T12:12:18;4.25;4.25;1.00
72509;PMS5003;60532;56.114;40.350;2022-11-15T12:16:37;3.50;3.50;1.50
72509;PMS5003;60532;56.114;40.350;2022-11-15T12:18:39;5.00;5.00;1.50
72509;PMS5003;60532;56.114;40.350;2022-11-15T12:20:41;5.00;2.00;1.00
72509;PMS5003;60532;56.114;40.350;2022-11-15T12:22:49;5.75;3.50;0.00
72509;PMS5003;60532;56.114;40.350;2022-11-15T12:27:04;4.75;2.50;1.00
72509;PMS5003;60532;56.114;40.350;2022-11-15T12:29:10;2.50;2.50;1.00
72509;PMS5003;60532;56.114;40.350;2022-11-15T12:35:41;1.75;1.00;0.00
72509;PMS5003;60532;56.114;40.350;2022-11-15T12:37:55;7.00;2.00;1.00
72509;PMS5003;60532;56.114;40.350;2022-11-15T12:44:12;1.00;1.00;1.00
72509;PMS5003;60532;56.114;40.350;2022-11-15T12:46:19;1.75;1.00;1.00
72509;PMS5003;60532;56.114;40.350;2022-11-15T12:55:30;4.00;4.00;1.25
72509;PMS5003;60532;56.114;40.350;2022-11-15T12:57:32;3.00;3.00;1.50
72509;PMS5003;60532;56.114;40.350;2022-11-15T13:01:55;3.00;3.00;0.50
72509;PMS5003;60532;56.114;40.350;2022-11-15T13:06:09;6.50;5.00;2.00
72509;PMS5003;60532;56.114;40.350;2022-11-15T13:08:10;5.00;4.00;1.00
72509;PMS5003;60532;56.114;40.350;2022-11-15T13:10:31;6.25;4.50;2.00
72509;PMS5003;60532;56.114;40.350;2022-11-15T13:16:48;5.00;2.00;1.25
72509;PMS5003;60532;56.114;40.350;2022-11-15T13:18:54;5.00;5.00;1.67
72509;PMS5003;60532;56.114;40.350;2022-11-15T13:20:56;3.00;1.25;1.00
72509;PMS5003;60532;56.114;40.350;2022-11-15T13:23:07;4.33;4.33;1.33
72509;PMS5003;60532;56.114;40.350;2022-11-15T13:27:28;5.00;4.25;2.00
72509;PMS5003;60532;56.114;40.350;2022-11-15T13:29:29;4.00;4.00;2.00
72509;PMS5003;60532;56.114;40.350;2022-11-15T13:31:42;7.00;5.00;2.00
72509;PMS5003;60532;56.114;40.350;2022-11-15T13:33:43;8.75;5.00;1.25
72509;PMS5003;60532;56.114;40.350;2022-11-15T13:35:57;8.25;5.00;2.00
72509;PMS5003;60532;56.114;40.350;2022-11-15T13:37:58;5.50;2.50;1.00
72509;PMS5003;60532;56.114;40.350;2022-11-15T13:40:17;4.25;4.25;1.75
72509;PMS5003;60532;56.114;40.350;2022-11-15T13:42:20;5.00;4.25;2.00
72509;PMS5003;60532;56.114;40.350;2022-11-15T13:44:22;5.00;5.00;2.00